sensor_id;sensor_type;location;lat;lon;timestamp;pressure;altitude;pressure_sealevel;temperature;humidity
2675;BME280;1347;42.122;24.746;2023-04-22T00:01:34;99304.75;;;13.66;100.00
2675;BME280;1347;42.122;24.746;2023-04-22T00:04:01;99309.47;;;13.73;100.00
2675;BME280;1347;42.122;24.746;2023-04-22T00:06:29;99303.59;;;13.63;100.00
2675;BME280;1347;42.122;24.746;2023-04-22T00:08:56;99304.75;;;13.73;100.00
2675;BME280;1347;42.122;24.746;2023-04-22T00:11:23;99314.56;;;13.74;100.00
2675;BME280;1347;42.122;24.746;2023-04-22T00:13:50;99309.84;;;13.78;100.00
2675;BME280;1347;42.122;24.746;2023-04-22T00:16:17;99303.97;;;13.69;100.00
2675;BME280;1347;42.122;24.746;2023-04-22T00:18:44;99301.97;;;13.77;100.00
2675;BME280;1347;42.122;24.746;2023-04-22T00:21:11;99309.84;;;13.75;100.00
2675;BME280;1347;42.122;24.746;2023-04-22T00:23:39;99302.41;;;13.72;100.00
2675;BME280;1347;42.122;24.746;2023-04-22T00:26:06;99296.09;;;13.71;100.00
2675;BME280;1347;42.122;24.746;2023-04-22T00:28:33;99298.84;;;13.78;100.00
2675;BME280;1347;42.122;24.746;2023-04-22T00:31:00;99296.47;;;13.80;100.00
2675;BME280;1347;42.122;24.746;2023-04-22T00:33:27;99293.75;;;13.73;100.00
2675;BME280;1347;42.122;24.746;2023-04-22T00:35:54;99298.44;;;13.66;100.00
2675;BME280;1347;42.122;24.746;2023-04-22T00:38:21;99291.41;;;13.43;100.00
2675;BME280;1347;42.122;24.746;2023-04-22T00:40:50;99294.16;;;13.47;100.00
2675;BME280;1347;42.122;24.746;2023-04-22T00:43:16;99297.69;;;13.22;100.00
2675;BME280;1347;42.122;24.746;2023-04-22T00:45:43;99288.03;;;12.38;100.00
2675;BME280;1347;42.122;24.746;2023-04-22T00:48:12;99294.31;;;12.42;100.00
2675;BME280;1347;42.122;24.746;2023-04-22T00:50:39;99293.56;;;12.45;100.00
2675;BME280;1347;42.122;24.746;2023-04-22T00:53:06;99303.03;;;12.59;100.00
2675;BME280;1347;42.122;24.746;2023-04-22T00:55:33;99305.34;;;12.53;100.00
2675;BME280;1347;42.122;24.746;2023-04-22T00:58:02;99308.13;;;12.49;100.00
2675;BME280;1347;42.122;24.746;2023-04-22T01:00:30;99313.97;;;12.44;100.00
2675;BME280;1347;42.122;24.746;2023-04-22T01:02:57;99321.06;;;12.45;100.00
2675;BME280;1347;42.122;24.746;2023-04-22T01:05:24;99317.88;;;12.36;100.00
2675;BME280;1347;42.122;24.746;2023-04-22T01:07:51;99320.63;;;12.43;100.00
2675;BME280;1347;42.122;24.746;2023-04-22T01:10:18;99314.78;;;12.48;100.00
2675;BME280;1347;42.122;24.746;2023-04-22T01:12:45;99312.09;;;12.66;100.00
2675;BME280;1347;42.122;24.746;2023-04-22T01:15:13;99316.41;;;12.67;100.00
2675;BME280;1347;42.122;24.746;2023-04-22T01:17:40;99309.38;;;12.84;100.00
2675;BME280;1347;42.122;24.746;2023-04-22T01:20:07;99310.94;;;12.71;100.00
2675;BME280;1347;42.122;24.746;2023-04-22T01:22:40;99309.41;;;12.80;100.00
2675;BME280;1347;42.122;24.746;2023-04-22T01:25:09;99304.25;;;12.68;100.00
2675;BME280;1347;42.122;24.746;2023-04-22T01:27:37;99308.56;;;12.69;100.00
2675;BME280;1347;42.122;24.746;2023-04-22T01:30:05;99298.78;;;12.79;100.00
2675;BME280;1347;42.122;24.746;2023-04-22T01:32:32;99301.13;;;12.77;100.00
2675;BME280;1347;42.122;24.746;2023-04-22T01:35:00;99301.50;;;12.75;100.00
2675;BME280;1347;42.122;24.746;2023-04-22T01:37:27;99296.00;;;12.72;100.00
2675;BME280;1347;42.122;24.746;2023-04-22T01:39:56;99307.44;;;12.81;100.00
2675;BME280;1347;42.122;24.746;2023-04-22T01:42:25;99309.00;;;12.78;100.00
2675;BME280;1347;42.122;24.746;2023-04-22T01:44:52;99308.97;;;12.68;100.00
2675;BME280;1347;42.122;24.746;2023-04-22T01:47:19;99310.00;;;12.31;100.00
2675;BME280;1347;42.122;24.746;2023-04-22T01:49:45;99314.75;;;12.41;100.00
2675;BME280;1347;42.122;24.746;2023-04-22T01:52:13;99301.75;;;12.28;100.00
2675;BME280;1347;42.122;24.746;2023-04-22T01:54:40;99303.59;;;12.06;100.00
2675;BME280;1347;42.122;24.746;2023-04-22T01:57:08;99302.81;;;12.05;100.00
2675;BME280;1347;42.122;24.746;2023-04-22T01:59:39;99302.28;;;11.86;100.00
2675;BME280;1347;42.122;24.746;2023-04-22T02:02:06;99295.63;;;11.87;100.00
2675;BME280;1347;42.122;24.746;2023-04-22T02:04:33;99291.56;;;11.66;100.00
2675;BME280;1347;42.122;24.746;2023-04-22T02:07:00;99288.81;;;11.66;100.00
2675;BME280;1347;42.122;24.746;2023-04-22T02:09:27;99284.78;;;11.50;100.00
2675;BME280;1347;42.122;24.746;2023-04-22T02:11:54;99290.00;;;11.69;100.00
2675;BME280;1347;42.122;24.746;2023-04-22T02:14:21;99294.34;;;11.73;100.00
2675;BME280;1347;42.122;24.746;2023-04-22T02:16:49;99292.81;;;11.76;100.00
2675;BME280;1347;42.122;24.746;2023-04-22T02:19:17;99279.50;;;11.78;100.00
2675;BME280;1347;42.122;24.746;2023-04-22T02:21:44;99289.69;;;11.77;100.00
2675;BME280;1347;42.122;24.746;2023-04-22T02:24:11;99292.84;;;11.83;100.00
2675;BME280;1347;42.122;24.746;2023-04-22T02:26:37;99292.75;;;11.72;100.00
2675;BME280;1347;42.122;24.746;2023-04-22T02:29:04;99295.59;;;11.79;100.00
2675;BME280;1347;42.122;24.746;2023-04-22T02:31:31;99297.94;;;11.77;100.00
2675;BME280;1347;42.122;24.746;2023-04-22T02:33:59;99295.59;;;11.79;100.00
2675;BME280;1347;42.122;24.746;2023-04-22T02:36:26;99300.69;;;11.77;100.00
2675;BME280;1347;42.122;24.746;2023-04-22T02:38:53;99294.72;;;11.72;100.00
2675;BME280;1347;42.122;24.746;2023-04-22T02:41:20;99300.69;;;11.81;100.00
2675;BME280;1347;42.122;24.746;2023-04-22T02:43:47;99294.81;;;11.79;100.00
2675;BME280;1347;42.122;24.746;2023-04-22T02:46:14;99292.38;;;11.74;100.00
2675;BME280;1347;42.122;24.746;2023-04-22T02:48:41;99295.50;;;11.72;100.00
2675;BME280;1347;42.122;24.746;2023-04-22T02:51:10;99303.34;;;11.70;100.00
2675;BME280;1347;42.122;24.746;2023-04-22T02:53:37;99300.53;;;11.63;100.00
2675;BME280;1347;42.122;24.746;2023-04-22T02:56:05;99305.66;;;11.65;100.00
2675;BME280;1347;42.122;24.746;2023-04-22T02:58:33;99298.25;;;11.69;100.00
2675;BME280;1347;42.122;24.746;2023-04-22T03:01:00;99300.16;;;11.65;100.00
2675;BME280;1347;42.122;24.746;2023-04-22T03:03:27;99309.97;;;11.66;100.00
2675;BME280;1347;42.122;24.746;2023-04-22T03:05:53;99308.84;;;11.70;100.00
2675;BME280;1347;42.122;24.746;2023-04-22T03:08:22;99302.91;;;11.65;100.00
2675;BME280;1347;42.122;24.746;2023-04-22T03:10:49;99309.22;;;11.69;100.00
2675;BME280;1347;42.122;24.746;2023-04-22T03:13:16;99305.66;;;11.65;100.00
2675;BME280;1347;42.122;24.746;2023-04-22T03:15:43;99302.06;;;11.57;100.00
2675;BME280;1347;42.122;24.746;2023-04-22T03:18:09;99302.41;;;11.49;100.00
2675;BME280;1347;42.122;24.746;2023-04-22T03:20:37;99303.88;;;11.35;100.00
2675;BME280;1347;42.122;24.746;2023-04-22T03:23:04;99298.56;;;11.09;100.00
2675;BME280;1347;42.122;24.746;2023-04-22T03:25:33;99301.41;;;10.83;100.00
2675;BME280;1347;42.122;24.746;2023-04-22T03:28:00;99307.94;;;10.67;100.00
2675;BME280;1347;42.122;24.746;2023-04-22T03:30:27;99305.13;;;10.30;100.00
2675;BME280;1347;42.122;24.746;2023-04-22T03:32:54;99304.09;;;10.42;100.00
2675;BME280;1347;42.122;24.746;2023-04-22T03:35:22;99306.56;;;10.21;100.00
2675;BME280;1347;42.122;24.746;2023-04-22T03:37:49;99303.66;;;10.10;100.00
2675;BME280;1347;42.122;24.746;2023-04-22T03:40:15;99300.03;;;10.03;100.00
2675;BME280;1347;42.122;24.746;2023-04-22T03:42:44;99307.00;;;10.23;100.00
2675;BME280;1347;42.122;24.746;2023-04-22T03:45:11;99310.09;;;10.21;100.00
2675;BME280;1347;42.122;24.746;2023-04-22T03:47:37;99318.56;;;10.13;100.00
2675;BME280;1347;42.122;24.746;2023-04-22T03:50:05;99322.41;;;10.35;100.00
2675;BME280;1347;42.122;24.746;2023-04-22T03:52:32;99327.66;;;10.47;100.00
2675;BME280;1347;42.122;24.746;2023-04-22T03:54:59;99341.75;;;10.49;100.00
2675;BME280;1347;42.122;24.746;2023-04-22T03:57:26;99340.28;;;10.55;100.00
2675;BME280;1347;42.122;24.746;2023-04-22T03:59:54;99339.53;;;10.58;100.00
2675;BME280;1347;42.122;24.746;2023-04-22T04:02:21;99341.34;;;10.47;100.00
2675;BME280;1347;42.122;24.746;2023-04-22T04:04:48;99345.19;;;10.42;100.00
2675;BME280;1347;42.122;24.746;2023-04-22T04:07:15;99341.84;;;10.56;100.00
2675;BME280;1347;42.122;24.746;2023-04-22T04:09:42;99346.47;;;10.48;100.00
2675;BME280;1347;42.122;24.746;2023-04-22T04:12:08;99353.97;;;10.55;100.00
2675;BME280;1347;42.122;24.746;2023-04-22T04:14:35;99350.88;;;10.60;100.00
2675;BME280;1347;42.122;24.746;2023-04-22T04:17:04;99349.50;;;10.73;100.00
2675;BME280;1347;42.122;24.746;2023-04-22T04:19:35;99349.84;;;10.68;100.00
2675;BME280;1347;42.122;24.746;2023-04-22T04:22:02;99355.84;;;10.81;100.00
2675;BME280;1347;42.122;24.746;2023-04-22T04:24:29;99359.38;;;10.81;100.00
2675;BME280;1347;42.122;24.746;2023-04-22T04:26:56;99361.47;;;10.95;100.00
2675;BME280;1347;42.122;24.746;2023-04-22T04:29:23;99363.50;;;11.01;100.00
2675;BME280;1347;42.122;24.746;2023-04-22T04:31:51;99361.66;;;11.13;100.00
2675;BME280;1347;42.122;24.746;2023-04-22T04:34:19;99357.03;;;11.20;100.00
2675;BME280;1347;42.122;24.746;2023-04-22T04:36:47;99360.28;;;11.29;100.00
2675;BME280;1347;42.122;24.746;2023-04-22T04:39:14;99368.19;;;11.38;100.00
2675;BME280;1347;42.122;24.746;2023-04-22T04:41:43;99365.09;;;11.43;100.00
2675;BME280;1347;42.122;24.746;2023-04-22T04:44:10;99370.28;;;11.55;100.00
2675;BME280;1347;42.122;24.746;2023-04-22T04:46:37;99368.31;;;11.52;100.00
2675;BME280;1347;42.122;24.746;2023-04-22T04:49:05;99370.72;;;11.57;100.00
2675;BME280;1347;42.122;24.746;2023-04-22T04:51:35;99380.16;;;11.19;100.00
2675;BME280;1347;42.122;24.746;2023-04-22T04:54:02;99371.41;;;11.06;100.00
2675;BME280;1347;42.122;24.746;2023-04-22T04:56:29;99367.09;;;11.05;100.00
2675;BME280;1347;42.122;24.746;2023-04-22T04:58:56;99373.16;;;11.25;100.00
2675;BME280;1347;42.122;24.746;2023-04-22T05:01:23;99374.22;;;11.14;100.00
2675;BME280;1347;42.122;24.746;2023-04-22T05:03:50;99370.94;;;11.38;100.00
2675;BME280;1347;42.122;24.746;2023-04-22T05:06:17;99371.50;;;11.58;100.00
2675;BME280;1347;42.122;24.746;2023-04-22T05:08:45;99370.41;;;11.69;100.00
2675;BME280;1347;42.122;24.746;2023-04-22T05:11:12;99372.34;;;11.65;100.00
2675;BME280;1347;42.122;24.746;2023-04-22T05:13:39;99378.19;;;12.08;100.00
2675;BME280;1347;42.122;24.746;2023-04-22T05:16:06;99390.16;;;12.40;100.00
2675;BME280;1347;42.122;24.746;2023-04-22T05:18:33;99381.66;;;12.70;100.00
2675;BME280;1347;42.122;24.746;2023-04-22T05:21:00;99383.69;;;12.87;100.00
2675;BME280;1347;42.122;24.746;2023-04-22T05:23:28;99385.31;;;13.13;100.00
2675;BME280;1347;42.122;24.746;2023-04-22T05:25:57;99380.28;;;13.33;100.00
2675;BME280;1347;42.122;24.746;2023-04-22T05:28:24;99384.63;;;13.48;100.00
2675;BME280;1347;42.122;24.746;2023-04-22T05:30:50;99383.84;;;13.69;100.00
2675;BME280;1347;42.122;24.746;2023-04-22T05:33:17;99393.28;;;13.89;100.00
2675;BME280;1347;42.122;24.746;2023-04-22T05:35:44;99387.78;;;14.04;100.00
2675;BME280;1347;42.122;24.746;2023-04-22T05:38:11;99401.50;;;14.28;100.00
2675;BME280;1347;42.122;24.746;2023-04-22T05:40:38;99391.22;;;14.61;100.00
2675;BME280;1347;42.122;24.746;2023-04-22T05:43:07;99406.50;;;14.80;100.00
2675;BME280;1347;42.122;24.746;2023-04-22T05:45:34;99400.53;;;14.95;96.99
2675;BME280;1347;42.122;24.746;2023-04-22T05:48:01;99405.44;;;15.36;97.26
2675;BME280;1347;42.122;24.746;2023-04-22T05:50:28;99410.72;;;15.75;95.72
2675;BME280;1347;42.122;24.746;2023-04-22T05:52:55;99402.84;;;15.73;93.03
2675;BME280;1347;42.122;24.746;2023-04-22T05:55:22;99415.69;;;15.94;91.60
2675;BME280;1347;42.122;24.746;2023-04-22T05:57:48;99412.09;;;16.01;89.75
2675;BME280;1347;42.122;24.746;2023-04-22T06:00:18;99411.50;;;16.20;89.92
2675;BME280;1347;42.122;24.746;2023-04-22T06:02:45;99408.13;;;16.43;88.68
2675;BME280;1347;42.122;24.746;2023-04-22T06:05:11;99403.47;;;16.33;88.47
2675;BME280;1347;42.122;24.746;2023-04-22T06:07:39;99409.66;;;16.47;87.72
2675;BME280;1347;42.122;24.746;2023-04-22T06:10:07;99402.38;;;16.27;88.10
2675;BME280;1347;42.122;24.746;2023-04-22T06:12:34;99398.34;;;16.35;87.86
2675;BME280;1347;42.122;24.746;2023-04-22T06:15:01;99401.78;;;16.80;87.37
2675;BME280;1347;42.122;24.746;2023-04-22T06:17:30;99405.97;;;17.25;85.00
2675;BME280;1347;42.122;24.746;2023-04-22T06:19:56;99408.25;;;17.57;83.44
2675;BME280;1347;42.122;24.746;2023-04-22T06:22:23;99407.72;;;17.93;82.82
2675;BME280;1347;42.122;24.746;2023-04-22T06:24:50;99403.09;;;17.86;82.89
2675;BME280;1347;42.122;24.746;2023-04-22T06:27:17;99406.41;;;17.20;82.43
2675;BME280;1347;42.122;24.746;2023-04-22T06:29:44;99407.59;;;17.50;81.10
2675;BME280;1347;42.122;24.746;2023-04-22T06:32:11;99402.09;;;16.89;83.17
2675;BME280;1347;42.122;24.746;2023-04-22T06:34:39;99400.13;;;16.52;84.45
2675;BME280;1347;42.122;24.746;2023-04-22T06:37:06;99404.22;;;16.78;82.58
2675;BME280;1347;42.122;24.746;2023-04-22T06:39:33;99398.78;;;17.55;81.05
2675;BME280;1347;42.122;24.746;2023-04-22T06:42:00;99404.97;;;18.36;78.43
2675;BME280;1347;42.122;24.746;2023-04-22T06:44:27;99401.63;;;18.88;75.97
2675;BME280;1347;42.122;24.746;2023-04-22T06:46:55;99399.13;;;19.65;72.94
2675;BME280;1347;42.122;24.746;2023-04-22T06:49:22;99398.66;;;20.32;71.85
2675;BME280;1347;42.122;24.746;2023-04-22T06:51:50;99400.38;;;20.26;70.04
2675;BME280;1347;42.122;24.746;2023-04-22T06:54:17;99398.69;;;19.51;71.52
2675;BME280;1347;42.122;24.746;2023-04-22T06:56:44;99403.44;;;20.89;69.60
2675;BME280;1347;42.122;24.746;2023-04-22T06:59:11;99401.84;;;19.33;70.03
2675;BME280;1347;42.122;24.746;2023-04-22T07:01:38;99401.09;;;20.75;68.58
2675;BME280;1347;42.122;24.746;2023-04-22T07:04:05;99402.13;;;21.35;66.45
2675;BME280;1347;42.122;24.746;2023-04-22T07:06:32;99405.56;;;21.77;64.55
2675;BME280;1347;42.122;24.746;2023-04-22T07:09:00;99411.91;;;22.16;62.48
2675;BME280;1347;42.122;24.746;2023-04-22T07:11:27;99405.78;;;22.43;62.26
2675;BME280;1347;42.122;24.746;2023-04-22T07:13:55;99403.34;;;22.66;61.65
2675;BME280;1347;42.122;24.746;2023-04-22T07:16:22;99409.75;;;22.54;62.11
2675;BME280;1347;42.122;24.746;2023-04-22T07:18:49;99396.66;;;23.38;59.88
2675;BME280;1347;42.122;24.746;2023-04-22T07:21:16;99406.38;;;24.14;55.78
2675;BME280;1347;42.122;24.746;2023-04-22T07:23:43;99405.03;;;24.28;57.55
2675;BME280;1347;42.122;24.746;2023-04-22T07:26:11;99406.03;;;25.30;54.45
2675;BME280;1347;42.122;24.746;2023-04-22T07:28:38;99409.63;;;26.30;50.50
2675;BME280;1347;42.122;24.746;2023-04-22T07:31:05;99405.53;;;27.08;46.07
2675;BME280;1347;42.122;24.746;2023-04-22T07:33:32;99414.50;;;29.13;43.72
2675;BME280;1347;42.122;24.746;2023-04-22T07:35:59;99414.34;;;30.27;40.96
2675;BME280;1347;42.122;24.746;2023-04-22T07:38:26;99414.63;;;31.50;39.41
2675;BME280;1347;42.122;24.746;2023-04-22T07:40:53;99413.22;;;32.29;37.27
2675;BME280;1347;42.122;24.746;2023-04-22T07:43:21;99415.75;;;33.32;35.15
2675;BME280;1347;42.122;24.746;2023-04-22T07:45:48;99416.53;;;34.59;34.23
2675;BME280;1347;42.122;24.746;2023-04-22T07:48:15;99421.34;;;35.98;32.63
2675;BME280;1347;42.122;24.746;2023-04-22T07:50:42;99422.22;;;36.59;31.15
2675;BME280;1347;42.122;24.746;2023-04-22T07:53:09;99420.31;;;37.21;29.93
2675;BME280;1347;42.122;24.746;2023-04-22T07:55:37;99418.38;;;38.36;28.74
2675;BME280;1347;42.122;24.746;2023-04-22T07:58:03;99401.75;;;38.78;28.41
2675;BME280;1347;42.122;24.746;2023-04-22T08:00:32;99404.47;;;36.13;29.55
2675;BME280;1347;42.122;24.746;2023-04-22T08:03:00;99405.22;;;36.13;30.32
2675;BME280;1347;42.122;24.746;2023-04-22T08:05:27;99407.88;;;37.81;28.99
2675;BME280;1347;42.122;24.746;2023-04-22T08:07:54;99408.84;;;38.48;27.53
2675;BME280;1347;42.122;24.746;2023-04-22T08:10:21;99405.50;;;38.57;27.79
2675;BME280;1347;42.122;24.746;2023-04-22T08:12:48;99412.63;;;39.99;27.23
2675;BME280;1347;42.122;24.746;2023-04-22T08:15:15;99404.88;;;40.24;26.58
2675;BME280;1347;42.122;24.746;2023-04-22T08:17:43;99400.34;;;41.83;25.98
2675;BME280;1347;42.122;24.746;2023-04-22T08:20:10;99400.63;;;41.95;24.63
2675;BME280;1347;42.122;24.746;2023-04-22T08:22:39;99394.06;;;39.92;25.69
2675;BME280;1347;42.122;24.746;2023-04-22T08:25:08;99389.53;;;41.17;25.20
2675;BME280;1347;42.122;24.746;2023-04-22T08:27:36;99393.56;;;41.88;24.54
2675;BME280;1347;42.122;24.746;2023-04-22T08:30:04;99383.91;;;40.94;24.43
2675;BME280;1347;42.122;24.746;2023-04-22T08:32:31;99382.44;;;41.18;25.05
2675;BME280;1347;42.122;24.746;2023-04-22T08:35:00;99385.22;;;42.17;24.38
2675;BME280;1347;42.122;24.746;2023-04-22T08:37:28;99371.47;;;42.25;24.24
2675;BME280;1347;42.122;24.746;2023-04-22T08:39:55;99376.69;;;40.86;24.36
2675;BME280;1347;42.122;24.746;2023-04-22T08:42:22;99364.22;;;43.22;23.78
2675;BME280;1347;42.122;24.746;2023-04-22T08:44:49;99372.66;;;44.42;22.71
2675;BME280;1347;42.122;24.746;2023-04-22T08:47:18;99365.94;;;44.49;22.66
2675;BME280;1347;42.122;24.746;2023-04-22T08:49:46;99364.53;;;44.69;22.79
2675;BME280;1347;42.122;24.746;2023-04-22T08:52:14;99359.03;;;45.85;21.54
2675;BME280;1347;42.122;24.746;2023-04-22T08:54:41;99355.78;;;46.12;21.77
2675;BME280;1347;42.122;24.746;2023-04-22T08:57:09;99351.03;;;43.85;22.49
2675;BME280;1347;42.122;24.746;2023-04-22T08:59:36;99359.41;;;44.29;22.09
2675;BME280;1347;42.122;24.746;2023-04-22T09:02:04;99344.06;;;44.26;22.12
2675;BME280;1347;42.122;24.746;2023-04-22T09:04:33;99337.78;;;43.72;22.52
2675;BME280;1347;42.122;24.746;2023-04-22T09:07:00;99330.56;;;41.50;23.80
2675;BME280;1347;42.122;24.746;2023-04-22T09:09:30;99335.56;;;42.71;22.05
2675;BME280;1347;42.122;24.746;2023-04-22T09:11:57;99335.84;;;41.20;24.28
2675;BME280;1347;42.122;24.746;2023-04-22T09:14:25;99332.41;;;42.76;23.40
2675;BME280;1347;42.122;24.746;2023-04-22T09:16:52;99328.72;;;38.63;25.50
2675;BME280;1347;42.122;24.746;2023-04-22T09:19:22;99323.97;;;41.40;24.12
2675;BME280;1347;42.122;24.746;2023-04-22T09:21:49;99326.25;;;41.42;24.19
2675;BME280;1347;42.122;24.746;2023-04-22T09:24:17;99321.44;;;36.37;27.72
2675;BME280;1347;42.122;24.746;2023-04-22T09:26:46;99316.91;;;32.89;32.04
2675;BME280;1347;42.122;24.746;2023-04-22T09:29:15;99311.00;;;35.34;28.99
2675;BME280;1347;42.122;24.746;2023-04-22T09:31:47;99317.13;;;38.92;26.41
2675;BME280;1347;42.122;24.746;2023-04-22T09:34:14;99306.69;;;42.00;24.70
2675;BME280;1347;42.122;24.746;2023-04-22T09:36:42;99297.81;;;41.46;24.48
2675;BME280;1347;42.122;24.746;2023-04-22T09:39:11;99303.13;;;43.62;23.17
2675;BME280;1347;42.122;24.746;2023-04-22T09:41:38;99298.72;;;44.98;22.53
2675;BME280;1347;42.122;24.746;2023-04-22T09:44:10;99292.53;;;41.60;24.21
2675;BME280;1347;42.122;24.746;2023-04-22T09:46:40;99290.47;;;43.02;23.32
2675;BME280;1347;42.122;24.746;2023-04-22T09:49:08;99292.69;;;44.06;22.25
2675;BME280;1347;42.122;24.746;2023-04-22T09:51:39;99280.63;;;38.77;25.35
2675;BME280;1347;42.122;24.746;2023-04-22T09:54:07;99284.63;;;38.89;26.39
2675;BME280;1347;42.122;24.746;2023-04-22T09:56:45;99277.91;;;39.86;25.63
2675;BME280;1347;42.122;24.746;2023-04-22T09:59:18;99269.00;;;41.04;24.34
2675;BME280;1347;42.122;24.746;2023-04-22T10:01:47;99260.00;;;36.99;27.30
2675;BME280;1347;42.122;24.746;2023-04-22T10:04:14;99266.75;;;34.88;29.44
2675;BME280;1347;42.122;24.746;2023-04-22T10:06:46;99261.84;;;36.55;27.24
2675;BME280;1347;42.122;24.746;2023-04-22T10:09:13;99266.72;;;38.96;26.11
2675;BME280;1347;42.122;24.746;2023-04-22T10:11:41;99266.44;;;41.75;24.03
2675;BME280;1347;42.122;24.746;2023-04-22T10:14:08;99272.28;;;42.46;22.89
2675;BME280;1347;42.122;24.746;2023-04-22T10:16:42;99263.44;;;36.76;27.71
2675;BME280;1347;42.122;24.746;2023-04-22T10:19:10;99264.53;;;33.44;29.11
2675;BME280;1347;42.122;24.746;2023-04-22T10:21:39;99256.31;;;36.36;28.23
2675;BME280;1347;42.122;24.746;2023-04-22T10:24:14;99261.25;;;37.11;26.19
2675;BME280;1347;42.122;24.746;2023-04-22T10:26:42;99261.31;;;37.47;25.81
2675;BME280;1347;42.122;24.746;2023-04-22T10:29:16;99260.81;;;35.45;27.74
2675;BME280;1347;42.122;24.746;2023-04-22T10:31:52;99259.81;;;38.10;26.29
2675;BME280;1347;42.122;24.746;2023-04-22T10:34:19;99260.94;;;37.43;25.80
2675;BME280;1347;42.122;24.746;2023-04-22T10:36:53;99268.25;;;37.87;25.51
2675;BME280;1347;42.122;24.746;2023-04-22T10:39:21;99258.84;;;36.94;25.34
2675;BME280;1347;42.122;24.746;2023-04-22T10:41:54;99255.00;;;36.71;25.57
2675;BME280;1347;42.122;24.746;2023-04-22T10:44:21;99263.78;;;36.73;26.81
2675;BME280;1347;42.122;24.746;2023-04-22T10:46:57;99262.69;;;39.15;24.93
2675;BME280;1347;42.122;24.746;2023-04-22T10:49:25;99257.41;;;36.67;25.84
2675;BME280;1347;42.122;24.746;2023-04-22T10:51:55;99261.78;;;33.82;28.89
2675;BME280;1347;42.122;24.746;2023-04-22T10:54:54;99263.56;;;34.22;29.64
2675;BME280;1347;42.122;24.746;2023-04-22T10:57:21;99267.78;;;31.60;32.06
2675;BME280;1347;42.122;24.746;2023-04-22T10:59:52;99267.81;;;30.37;34.78
2675;BME280;1347;42.122;24.746;2023-04-22T11:02:22;99269.47;;;29.42;36.35
2675;BME280;1347;42.122;24.746;2023-04-22T11:04:49;99264.06;;;28.75;37.15
2675;BME280;1347;42.122;24.746;2023-04-22T11:07:29;99255.34;;;27.05;38.84
2675;BME280;1347;42.122;24.746;2023-04-22T11:10:00;99268.06;;;26.57;40.09
2675;BME280;1347;42.122;24.746;2023-04-22T11:12:41;99256.31;;;26.29;40.32
2675;BME280;1347;42.122;24.746;2023-04-22T11:15:10;99271.28;;;26.64;40.29
2675;BME280;1347;42.122;24.746;2023-04-22T11:17:41;99267.56;;;26.29;39.36
2675;BME280;1347;42.122;24.746;2023-04-22T11:20:10;99264.84;;;25.96;39.97
2675;BME280;1347;42.122;24.746;2023-04-22T11:22:39;99283.00;;;26.63;39.48
2675;BME280;1347;42.122;24.746;2023-04-22T11:25:06;99283.03;;;25.86;39.19
2675;BME280;1347;42.122;24.746;2023-04-22T11:27:35;99282.38;;;25.67;39.47
2675;BME280;1347;42.122;24.746;2023-04-22T11:30:03;99293.19;;;24.93;40.14
2675;BME280;1347;42.122;24.746;2023-04-22T11:32:32;99301.22;;;24.40;40.91
2675;BME280;1347;42.122;24.746;2023-04-22T11:35:04;99300.41;;;23.76;41.93
2675;BME280;1347;42.122;24.746;2023-04-22T11:37:38;99311.06;;;22.57;43.79
2675;BME280;1347;42.122;24.746;2023-04-22T11:40:07;99307.09;;;22.24;44.89
2675;BME280;1347;42.122;24.746;2023-04-22T11:42:34;99322.13;;;21.45;46.47
2675;BME280;1347;42.122;24.746;2023-04-22T11:45:02;99324.34;;;21.12;47.26
2675;BME280;1347;42.122;24.746;2023-04-22T11:47:29;99329.00;;;20.89;48.23
2675;BME280;1347;42.122;24.746;2023-04-22T11:49:57;99339.75;;;20.62;48.66
2675;BME280;1347;42.122;24.746;2023-04-22T11:52:45;99337.38;;;20.48;49.38
2675;BME280;1347;42.122;24.746;2023-04-22T11:55:13;99337.13;;;19.97;50.45
2675;BME280;1347;42.122;24.746;2023-04-22T11:57:41;99344.88;;;19.90;51.79
2675;BME280;1347;42.122;24.746;2023-04-22T12:00:11;99342.47;;;19.92;52.17
2675;BME280;1347;42.122;24.746;2023-04-22T12:02:40;99335.75;;;20.34;52.70
2675;BME280;1347;42.122;24.746;2023-04-22T12:05:09;99345.47;;;20.71;51.76
2675;BME280;1347;42.122;24.746;2023-04-22T12:07:38;99341.84;;;20.58;52.48
2675;BME280;1347;42.122;24.746;2023-04-22T12:10:07;99342.41;;;20.08;53.66
2675;BME280;1347;42.122;24.746;2023-04-22T12:12:34;99350.97;;;20.01;53.79
2675;BME280;1347;42.122;24.746;2023-04-22T12:15:09;99343.16;;;19.79;54.15
2675;BME280;1347;42.122;24.746;2023-04-22T12:17:36;99353.94;;;19.94;54.04
2675;BME280;1347;42.122;24.746;2023-04-22T12:20:04;99363.34;;;20.29;54.28
2675;BME280;1347;42.122;24.746;2023-04-22T12:22:32;99362.19;;;20.26;56.00
2675;BME280;1347;42.122;24.746;2023-04-22T12:25:01;99368.50;;;20.14;57.71
2675;BME280;1347;42.122;24.746;2023-04-22T12:27:28;99366.44;;;20.02;61.82
2675;BME280;1347;42.122;24.746;2023-04-22T12:29:56;99366.78;;;20.04;65.02
2675;BME280;1347;42.122;24.746;2023-04-22T12:32:24;99367.06;;;19.77;64.86
2675;BME280;1347;42.122;24.746;2023-04-22T12:34:51;99365.69;;;19.69;63.27
2675;BME280;1347;42.122;24.746;2023-04-22T12:37:19;99364.66;;;19.27;68.49
2675;BME280;1347;42.122;24.746;2023-04-22T12:39:46;99356.41;;;18.87;71.77
2675;BME280;1347;42.122;24.746;2023-04-22T12:42:14;99366.47;;;18.81;67.93
2675;BME280;1347;42.122;24.746;2023-04-22T12:44:41;99361.56;;;18.69;73.19
2675;BME280;1347;42.122;24.746;2023-04-22T12:47:08;99357.84;;;18.75;68.67
2675;BME280;1347;42.122;24.746;2023-04-22T12:49:36;99357.97;;;18.49;70.94
2675;BME280;1347;42.122;24.746;2023-04-22T12:52:04;99357.78;;;18.16;71.44
2675;BME280;1347;42.122;24.746;2023-04-22T12:54:32;99371.97;;;17.98;71.99
2675;BME280;1347;42.122;24.746;2023-04-22T12:56:58;99366.97;;;17.90;72.64
2675;BME280;1347;42.122;24.746;2023-04-22T12:59:28;99363.53;;;17.55;69.98
2675;BME280;1347;42.122;24.746;2023-04-22T13:01:55;99361.16;;;16.73;84.18
2675;BME280;1347;42.122;24.746;2023-04-22T13:04:21;99354.09;;;16.69;78.39
2675;BME280;1347;42.122;24.746;2023-04-22T13:06:49;99364.66;;;16.40;76.37
2675;BME280;1347;42.122;24.746;2023-04-22T13:09:24;99362.00;;;15.92;78.93
2675;BME280;1347;42.122;24.746;2023-04-22T13:11:51;99363.81;;;16.09;76.13